RJTQ(METAR)
02/27 16:00
RJTQ 270700Z 03021G31KT 8000 RA BKN013 OVC030 09/07 Q1020 RMK
A3014=
戻る
トップページへ戻る
IMOC Co,.Ltd.